Portada
METAR-TAF:

METAR-TAF

Aeropuertos :

Aeropuerto de Burgos

Burgos, España

latitud: 42-22N, longitud: 003-38W, altitud: 894 m

Observación

El informe se hizo hace 17 minutos, a las 08:30 UTC
Viento 15 kt del noreste, variando entre norte-noreste y este
Temperatura 13°C
Humedad 72%
Presión 1025 hPa
Visibilidad 10 km o más
Nubes dispersas a una altura de 2100 ft

METAR: LEBG 180830Z 05015KT 020V080 9999 SCT021 13/08 Q1025

Hora: 10:47 (08:47 UTC)

Pronóstico

El informe se hizo hace 47 minutos, a las 08:00 UTC
Pronóstico válido del 18 a las 09 UTC al 18 a las 18 UTC
Viento 10 kt del este-noreste
Visibilidad 10 km o más
Escasas nubes a una altura de 2000 ft
Probabilidad 40% :
Temporalmente
del 18 a las 12 UTC al 18 a las 18 UTC
Viento 15 kt del noreste con ráfagas de 25 kt

TAF: LEBG 180800Z 1809/1818 06010KT 9999 FEW020 PROB40 TEMPO 1812/1818 05015G25KT

Observaciones y pronósticos meteorológicos de más de 4000 aeropuertos (mensajes METAR y TAF).

Los puntos amarillos y rojos representan las estaciones disponibles.

Ponga el ratón en el punto deseado para ver el nombre de la estación.

Haga clic para ver las observaciones y los pronósticos meteorológicos.

Para cambiar el mapa : haga clic en los botones verdes con una cruz de color negro para hacer un zoom, en el botón verde con un guión para alejar o en las flechas verdes para mapas adyacentes.


METAR-TAF: